Great Stukeley, United Kingdom
Current Conditions -  °F | °C
As of 8:20 PM on Monday 20 Oct 2014 (Local Time) from EGSC Reporting Station
Clear Clear  
Wind Chill: 55°   Ceiling: Unl
Heat Index: 55°   Visibility: 6mi
Dew Point: 50°   Wind: 12mph
Humidity: 82%   Direction: 220°SW
Pressure: 29.88"   Gusts: NA
Location:  52.36°N, 0.21°W
Report Text: EGSC 201920Z 22010KT CAVOK 13/10 Q1012
Loading
Personal Weather Stations






























Interactive Weather Map
Tropical Storm Tracking
New forecast layout! Learn more

10-Day Weather Forecast

Advertisements
Track Severe Weather on mobile